Time;durP1;ratioP1;P1;durP2;ratioP2;P2;SDS_P1;SDS_P2;PMS_P1;PMS_P2;Temp;Humidity;BMP_temperature;BMP_pressure;BME280_temperature;BME280_humidity;BME280_pressure;Samples;Min_cycle;Max_cycle;Signal;HPM_P1;HPM_P2
2022/04/04 00:00:40;;;;;;;0.00;0.00;;;4.00;99.90;;;;;;5052817;28;20096;-85
2022/04/04 00:03:09;;;;;;;3.40;0.10;;;3.30;99.90;;;;;;5035925;28;20134;-85
2022/04/04 00:05:36;;;;;;;0.03;0.03;;;3.70;99.90;;;;;;5035532;28;20041;-85
2022/04/04 00:08:02;;;;;;;0.00;0.00;;;3.20;99.90;;;;;;5038736;28;20045;-85
2022/04/04 00:10:30;;;;;;;0.00;0.00;;;3.10;99.90;;;;;;5056132;28;20503;-85
2022/04/04 00:12:56;;;;;;;0.00;0.00;;;3.60;99.90;;;;;;5056209;28;20106;-85
2022/04/04 00:15:25;;;;;;;1.65;0.13;;;3.00;99.90;;;;;;5056647;28;20045;-85
2022/04/04 00:18:00;;;;;;;0.10;0.00;;;3.70;99.90;;;;;;5039551;28;20045;-85
2022/04/04 00:20:27;;;;;;;;;;;3.10;99.90;;;;;;5040229;28;20045;-85
2022/04/04 00:22:53;;;;;;;0.28;0.28;;;3.10;99.90;;;;;;5056288;28;20023;-85
2022/04/04 00:25:21;;;;;;;0.00;0.00;;;3.10;99.90;;;;;;5055949;28;20170;-85
2022/04/04 00:27:48;;;;;;;0.10;0.00;;;3.10;99.90;;;;;;5056887;28;20044;-85
2022/04/04 00:30:14;;;;;;;0.00;0.00;;;3.10;99.90;;;;;;5039421;28;20511;-85
2022/04/04 00:32:46;;;;;;;0.00;0.00;;;3.10;99.90;;;;;;5039542;28;20132;-85
2022/04/04 00:35:14;;;;;;;0.20;0.20;;;3.10;99.90;;;;;;5056070;28;20045;-85
2022/04/04 00:37:42;;;;;;;0.00;0.00;;;3.10;99.90;;;;;;5038989;28;20041;-85
2022/04/04 00:40:08;;;;;;;0.00;0.00;;;3.20;99.90;;;;;;5056662;28;20137;-85
2022/04/04 00:42:38;;;;;;;0.00;0.00;;;3.20;99.90;;;;;;5055851;28;20045;-85
2022/04/04 00:45:04;;;;;;;0.00;0.00;;;3.00;99.90;;;;;;5056249;28;20148;-85
2022/04/04 00:47:35;;;;;;;0.30;0.15;;;3.10;99.90;;;;;;5055811;28;20085;-85
2022/04/04 00:50:05;;;;;;;0.00;0.00;;;3.10;99.90;;;;;;5039211;28;20073;-85
2022/04/04 00:52:33;;;;;;;0.00;0.00;;;3.10;99.90;;;;;;5039176;28;20049;-85
2022/04/04 00:55:01;;;;;;;0.00;0.00;;;3.10;99.90;;;;;;5056300;28;20084;-85
2022/04/04 00:57:28;;;;;;;0.00;0.00;;;3.10;99.90;;;;;;5056001;28;20396;-85
2022/04/04 00:59:55;;;;;;;0.00;0.00;;;3.10;99.90;;;;;;5055976;28;20387;-85
2022/04/04 01:02:21;;;;;;;0.00;0.00;;;3.70;99.90;;;;;;5055715;28;20048;-85
2022/04/04 01:04:49;;;;;;;0.00;0.00;;;3.20;99.90;;;;;;5038878;28;20049;-85
2022/04/04 01:07:21;;;;;;;0.00;0.00;;;3.20;99.90;;;;;;5039460;28;20044;-85
2022/04/04 01:09:49;;;;;;;0.00;0.00;;;3.20;99.90;;;;;;5038779;28;20404;-85
2022/04/04 01:12:21;;;;;;;0.00;0.00;;;4.00;99.90;;;;;;5054902;28;20105;-85
2022/04/04 01:14:48;;;;;;;0.10;0.10;;;3.30;99.90;;;;;;5038861;28;20064;-85
2022/04/04 01:17:19;;;;;;;0.00;0.00;;;3.30;99.90;;;;;;5054796;28;20048;-85
2022/04/04 01:19:52;;;;;;;0.10;0.10;;;3.30;99.90;;;;;;5054843;28;20124;-85
2022/04/04 01:22:20;;;;;;;0.00;0.00;;;3.40;99.90;;;;;;5054488;28;20075;-85
2022/04/04 01:24:45;;;;;;;0.00;0.00;;;3.40;99.90;;;;;;5038348;28;20045;-85
2022/04/04 01:27:17;;;;;;;0.00;0.00;;;3.70;99.90;;;;;;5054714;28;20489;-85
2022/04/04 01:29:42;;;;;;;0.30;0.20;;;3.50;99.90;;;;;;5038039;28;20041;-85
2022/04/04 01:32:11;;;;;;;0.00;0.00;;;3.40;99.90;;;;;;5054752;28;20044;-86
2022/04/04 01:34:43;;;;;;;0.00;0.00;;;3.50;99.90;;;;;;5054997;28;20045;-85
2022/04/04 01:37:08;;;;;;;0.00;0.00;;;3.60;99.90;;;;;;5054788;28;20037;-85
2022/04/04 01:39:34;;;;;;;0.00;0.00;;;3.60;99.90;;;;;;5038052;28;20102;-85
2022/04/04 01:42:00;;;;;;;0.00;0.00;;;3.50;99.90;;;;;;5038028;28;20052;-85
2022/04/04 01:44:29;;;;;;;1.75;0.52;;;3.60;99.90;;;;;;5054936;28;20468;-85
2022/04/04 01:46:58;;;;;;;0.08;0.08;;;3.80;99.90;;;;;;5054817;28;20044;-85
2022/04/04 01:49:24;;;;;;;0.00;0.00;;;3.70;99.90;;;;;;5038184;28;20049;-85
2022/04/04 01:51:50;;;;;;;0.10;0.10;;;3.90;99.90;;;;;;5055233;28;20041;-85
2022/04/04 01:54:16;;;;;;;0.05;0.05;;;3.70;99.90;;;;;;5037479;28;20107;-85
2022/04/04 01:56:41;;;;;;;0.85;0.43;;;3.70;99.90;;;;;;5054246;28;20044;-85
2022/04/04 01:59:07;;;;;;;0.10;0.10;;;3.60;99.90;;;;;;5053973;28;20381;-85
2022/04/04 02:01:36;;;;;;;0.00;0.00;;;4.20;99.90;;;;;;5054405;28;20049;-85
2022/04/04 02:04:03;;;;;;;0.00;0.00;;;3.70;99.90;;;;;;5037348;28;20098;-85
2022/04/04 02:06:33;;;;;;;0.00;0.00;;;3.90;99.90;;;;;;5054329;28;20056;-85
2022/04/04 02:08:59;;;;;;;0.35;0.10;;;3.70;99.90;;;;;;5037906;28;20048;-85
2022/04/04 02:11:25;;;;;;;0.10;0.00;;;3.80;99.90;;;;;;5053711;28;20400;-84
2022/04/04 02:13:57;;;;;;;0.00;0.00;;;3.70;99.90;;;;;;5054370;28;20049;-85
2022/04/04 02:16:23;;;;;;;0.00;0.00;;;3.80;99.90;;;;;;5038064;28;20041;-85
2022/04/04 02:18:49;;;;;;;0.70;0.20;;;4.00;99.90;;;;;;5054358;28;20060;-85
2022/04/04 02:21:15;;;;;;;0.03;0.03;;;3.80;99.90;;;;;;5053620;28;20492;-85
2022/04/04 02:23:40;;;;;;;1.17;0.40;;;3.80;99.90;;;;;;5053829;28;20044;-85
2022/04/04 02:26:06;;;;;;;0.00;0.00;;;3.80;99.90;;;;;;5038105;28;20045;-85
2022/04/04 02:28:32;;;;;;;0.05;0.05;;;3.70;99.90;;;;;;5037005;28;20098;-85
2022/04/04 02:30:58;;;;;;;0.08;0.08;;;3.80;99.90;;;;;;5053393;28;20043;-85
2022/04/04 02:33:31;;;;;;;5.20;0.15;;;4.20;99.90;;;;;;5037442;28;20381;-85
2022/04/04 02:36:00;;;;;;;0.17;0.17;;;3.80;99.90;;;;;;5053894;28;20045;-85
2022/04/04 02:38:27;;;;;;;0.00;0.00;;;3.80;99.90;;;;;;5037340;28;20136;-85
2022/04/04 02:40:54;;;;;;;0.28;0.28;;;3.80;99.90;;;;;;5037434;28;20072;-85
2022/04/04 02:43:21;;;;;;;0.10;0.10;;;4.00;99.90;;;;;;5053558;28;20131;-85
2022/04/04 02:45:46;;;;;;;0.75;0.00;;;3.80;99.90;;;;;;5053198;28;20043;-85
2022/04/04 02:48:17;;;;;;;0.03;0.00;;;3.80;99.90;;;;;;5036687;28;20459;-85
2022/04/04 02:50:47;;;;;;;0.00;0.00;;;3.80;99.90;;;;;;5036790;28;20053;-85
2022/04/04 02:53:13;;;;;;;0.15;0.15;;;4.50;99.90;;;;;;5053220;28;20037;-85
2022/04/04 02:58:24;;;;;;;0.70;0.10;;;4.10;99.90;;;;;;5053690;28;20048;-85
2022/04/04 03:00:49;;;;;;;0.10;0.10;;;3.80;99.90;;;;;;5053434;28;20118;-85
2022/04/04 03:03:15;;;;;;;0.03;0.03;;;3.80;99.90;;;;;;5053377;28;20365;-85
2022/04/04 03:05:41;;;;;;;0.90;0.10;;;3.80;99.90;;;;;;5036657;28;20536;-85
2022/04/04 03:08:07;;;;;;;0.10;0.10;;;4.30;99.90;;;;;;5052691;28;20137;-85
2022/04/04 03:10:34;;;;;;;0.03;0.03;;;4.10;99.90;;;;;;5052782;28;20104;-85
2022/04/04 03:13:02;;;;;;;0.10;0.10;;;3.90;99.90;;;;;;5035945;28;20056;-85
2022/04/04 03:15:28;;;;;;;0.60;0.20;;;3.70;99.90;;;;;;5036348;28;20048;-85
2022/04/04 03:17:57;;;;;;;0.28;0.22;;;4.00;99.90;;;;;;5052699;28;20048;-85
2022/04/04 03:20:25;;;;;;;1.27;0.10;;;3.90;99.90;;;;;;5053699;28;20049;-85
2022/04/04 03:22:53;;;;;;;0.55;0.15;;;4.00;99.90;;;;;;5036247;28;20049;-85
2022/04/04 03:25:19;;;;;;;0.00;0.00;;;4.00;99.90;;;;;;5053094;28;20045;-85
2022/04/04 03:27:48;;;;;;;0.25;0.20;;;4.10;99.90;;;;;;5052912;28;20123;-85
2022/04/04 03:30:18;;;;;;;0.32;0.30;;;4.10;99.90;;;;;;5052909;28;20052;-85
2022/04/04 03:32:49;;;;;;;0.47;0.30;;;4.50;99.90;;;;;;5035866;28;20057;-85
2022/04/04 03:35:15;;;;;;;0.05;0.05;;;4.10;99.90;;;;;;5052789;28;20060;-85
2022/04/04 03:37:42;;;;;;;0.10;0.10;;;4.20;99.90;;;;;;5050539;28;20493;-85
2022/04/04 03:40:16;;;;;;;0.98;0.15;;;4.20;99.90;;;;;;5034560;28;20056;-85
2022/04/04 03:42:44;;;;;;;0.10;0.00;;;4.10;99.90;;;;;;5035830;28;20071;-86
2022/04/04 03:45:11;;;;;;;0.15;0.15;;;4.10;99.90;;;;;;5052437;28;20484;-86
2022/04/04 03:47:38;;;;;;;0.10;0.10;;;4.10;99.90;;;;;;5052664;28;20049;-85
2022/04/04 03:50:09;;;;;;;0.05;0.05;;;4.20;99.90;;;;;;5035603;28;20045;-86
2022/04/04 03:52:35;;;;;;;2.00;0.43;;;4.20;99.90;;;;;;5036281;28;20519;-85
2022/04/04 03:55:02;;;;;;;0.13;0.10;;;4.20;99.90;;;;;;5052856;28;20393;-86
2022/04/04 03:57:28;;;;;;;0.10;0.10;;;5.20;99.90;;;;;;5052272;28;20099;-85
2022/04/04 03:59:54;;;;;;;0.00;0.00;;;4.40;99.90;;;;;;5035852;28;20476;-85
2022/04/04 04:02:23;;;;;;;0.60;0.25;;;4.30;99.90;;;;;;5036019;28;20045;-85
2022/04/04 04:04:48;;;;;;;2.05;0.10;;;4.30;99.90;;;;;;5052412;28;20049;-85
2022/04/04 04:07:21;;;;;;;0.05;0.05;;;4.30;99.90;;;;;;5035601;28;20111;-85
2022/04/04 04:09:47;;;;;;;4.13;0.43;;;4.40;99.90;;;;;;5036042;28;20056;-85
2022/04/04 04:12:15;;;;;;;0.03;0.03;;;4.40;99.90;;;;;;5051953;28;20053;-85
2022/04/04 04:14:41;;;;;;;0.22;0.10;;;4.40;99.90;;;;;;5035896;28;20582;-85
2022/04/04 04:17:08;;;;;;;0.10;0.10;;;4.50;99.90;;;;;;5035372;28;20091;-85
2022/04/04 04:22:20;;;;;;;1.02;0.75;;;4.70;99.90;;;;;;5052283;28;20056;-85
2022/04/04 04:24:46;;;;;;;0.10;0.00;;;4.50;99.90;;;;;;5035488;28;20499;-85
2022/04/04 04:27:15;;;;;;;0.15;0.15;;;4.50;99.90;;;;;;5036649;28;20133;-85
2022/04/04 04:29:44;;;;;;;0.05;0.05;;;4.50;99.90;;;;;;5035353;28;20045;-85
2022/04/04 04:32:13;;;;;;;0.63;0.50;;;4.90;99.90;;;;;;5052260;28;20052;-85
2022/04/04 04:34:39;;;;;;;0.00;0.00;;;4.80;99.90;;;;;;5035308;28;20545;-85
2022/04/04 04:37:05;;;;;;;0.17;0.00;;;4.60;99.90;;;;;;5051682;28;20041;-85
2022/04/04 04:39:34;;;;;;;0.28;0.28;;;4.50;99.90;;;;;;5036237;28;20087;-85
2022/04/04 04:41:59;;;;;;;0.20;0.20;;;4.20;99.90;;;;;;5052075;28;20073;-85
2022/04/04 04:44:27;;;;;;;0.00;0.00;;;4.60;99.90;;;;;;5035822;28;20049;-85
2022/04/04 04:46:56;;;;;;;0.00;0.00;;;4.50;99.90;;;;;;5035493;28;20102;-85
2022/04/04 04:49:24;;;;;;;0.08;0.05;;;4.50;99.90;;;;;;5052161;28;20053;-85
2022/04/04 04:51:50;;;;;;;0.30;0.30;;;4.50;99.90;;;;;;5052001;28;20104;-85
2022/04/04 04:54:16;;;;;;;1.20;0.10;;;4.10;99.90;;;;;;5052975;28;20122;-85
2022/04/04 04:56:43;;;;;;;0.05;0.03;;;4.50;99.90;;;;;;5055486;28;20103;-85
2022/04/04 04:59:13;;;;;;;0.45;0.35;;;4.60;99.90;;;;;;5038579;28;20500;-85
2022/04/04 05:01:40;;;;;;;2.08;0.68;;;4.50;99.90;;;;;;5038924;28;20045;-85
2022/04/04 05:04:05;;;;;;;0.38;0.38;;;4.80;99.90;;;;;;5055437;28;20053;-84
2022/04/04 05:06:32;;;;;;;0.00;0.00;;;4.50;99.90;;;;;;5055120;28;20044;-85
2022/04/04 05:09:00;;;;;;;0.17;0.17;;;4.40;99.90;;;;;;5038995;28;20041;-85
2022/04/04 05:11:26;;;;;;;0.70;0.52;;;4.40;99.90;;;;;;5038195;28;20516;-84
2022/04/04 05:13:53;;;;;;;0.00;0.00;;;4.50;99.90;;;;;;5039218;28;20060;-85
2022/04/04 05:16:18;;;;;;;0.15;0.15;;;4.40;99.90;;;;;;5055193;28;20045;-85
2022/04/04 05:18:44;;;;;;;0.00;0.00;;;4.50;99.90;;;;;;5038312;28;20408;-84
2022/04/04 05:21:11;;;;;;;0.20;0.10;;;4.20;99.90;;;;;;5038211;28;20480;-86
2022/04/04 05:23:38;;;;;;;0.08;0.08;;;4.40;99.90;;;;;;5038431;28;20041;-85
2022/04/04 05:26:05;;;;;;;0.30;0.10;;;4.40;99.90;;;;;;5038585;28;20436;-86
2022/04/04 05:28:31;;;;;;;0.10;0.10;;;4.70;99.90;;;;;;5037984;28;20512;-85
2022/04/04 05:30:58;;;;;;;5.25;0.57;;;4.50;99.90;;;;;;5055032;28;20385;-85
2022/04/04 05:33:25;;;;;;;0.03;0.03;;;5.10;99.90;;;;;;5038335;28;20389;-85
2022/04/04 05:35:50;;;;;;;0.30;0.30;;;4.40;99.90;;;;;;5038403;28;20045;-85
2022/04/04 05:38:17;;;;;;;0.15;0.15;;;4.40;99.90;;;;;;5055069;28;20049;-85
2022/04/04 05:40:43;;;;;;;0.10;0.08;;;4.50;99.90;;;;;;5038351;28;20052;-85
2022/04/04 05:43:11;;;;;;;0.90;0.20;;;4.70;99.90;;;;;;5038131;28;20496;-85
2022/04/04 05:45:38;;;;;;;1.17;0.25;;;4.50;99.90;;;;;;5054490;28;20048;-85
2022/04/04 05:48:06;;;;;;;0.52;0.30;;;4.50;99.90;;;;;;5054513;28;20057;-85
2022/04/04 05:50:33;;;;;;;0.00;0.00;;;4.50;99.90;;;;;;5054425;28;20045;-85
2022/04/04 05:52:59;;;;;;;1.38;0.47;;;5.30;99.90;;;;;;5037607;28;20128;-84
2022/04/04 05:55:25;;;;;;;0.43;0.43;;;4.50;99.90;;;;;;5037936;28;20128;-85
2022/04/04 05:57:50;;;;;;;0.00;0.00;;;4.50;99.90;;;;;;5054177;28;20473;-85
2022/04/04 06:00:17;;;;;;;0.00;0.00;;;4.60;99.90;;;;;;5038096;28;20416;-85
2022/04/04 06:02:45;;;;;;;0.10;0.00;;;4.60;99.90;;;;;;5054053;28;20049;-86
2022/04/04 06:05:17;;;;;;;0.00;0.00;;;4.60;99.90;;;;;;5037782;28;20573;-85
2022/04/04 06:07:42;;;;;;;8.68;1.00;;;4.60;99.90;;;;;;5054181;28;20059;-85
2022/04/04 06:10:09;;;;;;;0.28;0.28;;;5.00;99.90;;;;;;5054172;28;20053;-85
2022/04/04 06:12:40;;;;;;;1.85;0.43;;;4.70;99.90;;;;;;5053562;28;20446;-85
2022/04/04 06:15:07;;;;;;;1.25;0.73;;;4.70;99.90;;;;;;5054103;28;20041;-85
2022/04/04 06:17:33;;;;;;;0.00;0.00;;;4.70;99.90;;;;;;5053776;28;20083;-85
2022/04/04 06:19:59;;;;;;;0.20;0.20;;;5.30;99.90;;;;;;5037219;28;20511;-86
2022/04/04 06:22:25;;;;;;;2.50;0.40;;;4.80;99.90;;;;;;5036860;28;20059;-86
2022/04/04 06:24:51;;;;;;;0.30;0.17;;;4.90;99.90;;;;;;5053899;28;20049;-85
2022/04/04 06:27:17;;;;;;;0.25;0.20;;;4.80;99.90;;;;;;5037412;28;20044;-85
2022/04/04 06:29:43;;;;;;;0.00;0.00;;;5.00;99.90;;;;;;5037152;28;20045;-85
2022/04/04 06:32:10;;;;;;;0.15;0.10;;;5.10;99.90;;;;;;5037528;28;20118;-86
2022/04/04 06:34:37;;;;;;;1.85;0.28;;;5.10;99.90;;;;;;5053809;28;20053;-86
2022/04/04 06:37:04;;;;;;;0.10;0.10;;;5.60;99.90;;;;;;5053855;28;20048;-84
2022/04/04 06:39:30;;;;;;;0.03;0.03;;;5.20;99.90;;;;;;5037018;28;20504;-83
2022/04/04 06:41:56;;;;;;;0.10;0.10;;;5.70;99.90;;;;;;5037136;28;20091;-83
2022/04/04 06:44:24;;;;;;;0.00;0.00;;;5.30;99.90;;;;;;5053615;28;20072;-84
2022/04/04 06:46:50;;;;;;;0.13;0.05;;;5.40;99.90;;;;;;5037096;28;20049;-87
2022/04/04 06:49:16;;;;;;;0.00;0.00;;;5.40;99.90;;;;;;5036957;28;20071;-84
2022/04/04 06:51:42;;;;;;;0.00;0.00;;;5.70;99.90;;;;;;5037005;28;20536;-86
2022/04/04 06:54:08;;;;;;;1.02;0.10;;;5.70;99.90;;;;;;5053386;28;20080;-85
2022/04/04 06:56:35;;;;;;;0.40;0.15;;;5.80;99.90;;;;;;5053436;28;20054;-85
2022/04/04 06:59:04;;;;;;;0.00;0.00;;;5.70;99.90;;;;;;5036633;28;20053;-86
2022/04/04 07:01:31;;;;;;;0.10;0.10;;;5.80;99.90;;;;;;5036803;28;20037;-85
2022/04/04 07:03:58;;;;;;;0.32;0.32;;;5.90;99.90;;;;;;5036373;28;20041;-86
2022/04/04 07:06:25;;;;;;;1.45;0.10;;;6.20;99.90;;;;;;5053347;28;20053;-86
2022/04/04 07:08:51;;;;;;;0.10;0.10;;;6.20;99.90;;;;;;5053016;28;20128;-86
2022/04/04 07:11:17;;;;;;;0.10;0.03;;;6.50;99.90;;;;;;5037398;28;20131;-87
2022/04/04 07:13:44;;;;;;;2.92;0.57;;;6.20;99.90;;;;;;5054464;28;20540;-86
2022/04/04 07:16:10;;;;;;;0.25;0.10;;;6.30;99.90;;;;;;5052551;28;20049;-85
2022/04/04 07:18:36;;;;;;;0.68;0.38;;;6.10;99.90;;;;;;5052491;28;20045;-85
2022/04/04 07:21:02;;;;;;;0.20;0.20;;;6.10;99.90;;;;;;5036681;28;20052;-85
2022/04/04 07:23:27;;;;;;;1.40;0.20;;;6.00;99.90;;;;;;5052921;28;20041;-85
2022/04/04 07:25:53;;;;;;;0.45;0.10;;;6.10;99.90;;;;;;5036248;28;20053;-85
2022/04/04 07:28:21;;;;;;;0.00;0.00;;;6.10;99.90;;;;;;5053334;28;20041;-85
2022/04/04 07:30:47;;;;;;;0.00;0.00;;;6.00;99.90;;;;;;5053169;28;20041;-85
2022/04/04 07:33:18;;;;;;;1.23;0.25;;;5.30;99.90;;;;;;5036232;28;20409;-85
2022/04/04 07:35:45;;;;;;;0.10;0.10;;;6.00;99.90;;;;;;5036595;28;20051;-85
2022/04/04 07:38:11;;;;;;;0.10;0.10;;;6.60;99.90;;;;;;5036129;28;20393;-84
2022/04/04 07:40:37;;;;;;;0.65;0.22;;;6.00;99.90;;;;;;5036026;28;20561;-84
2022/04/04 07:43:03;;;;;;;0.22;0.20;;;6.10;99.90;;;;;;5036975;28;20080;-85
2022/04/04 07:45:30;;;;;;;0.10;0.10;;;6.60;99.90;;;;;;5052403;28;20496;-85
2022/04/04 07:47:57;;;;;;;0.00;0.00;;;5.70;99.90;;;;;;5036274;28;20041;-86
2022/04/04 07:50:23;;;;;;;0.88;0.47;;;5.80;99.90;;;;;;5036152;28;20144;-85
2022/04/04 07:52:49;;;;;;;0.75;0.47;;;5.90;99.90;;;;;;5035926;28;20048;-86
2022/04/04 07:55:18;;;;;;;0.20;0.20;;;5.70;99.90;;;;;;5052375;28;20049;-85
2022/04/04 07:57:45;;;;;;;0.03;0.00;;;5.80;99.90;;;;;;5035795;28;20037;-85
2022/04/04 08:00:17;;;;;;;0.03;0.03;;;5.70;99.90;;;;;;5035860;28;20052;-85
2022/04/04 08:02:43;;;;;;;0.52;0.10;;;5.70;99.90;;;;;;5036491;28;20509;-85
2022/04/04 08:05:09;;;;;;;0.40;0.32;;;5.70;99.90;;;;;;5052094;28;20049;-85
2022/04/04 08:07:37;;;;;;;0.30;0.10;;;5.80;99.90;;;;;;5035758;28;20045;-85
2022/04/04 08:10:06;;;;;;;0.00;0.00;;;5.70;99.90;;;;;;5035716;28;20577;-85
2022/04/04 08:12:32;;;;;;;1.55;0.35;;;5.70;99.90;;;;;;5052337;28;20056;-85
2022/04/04 08:14:58;;;;;;;2.45;0.65;;;5.70;99.90;;;;;;5052451;28;20044;-85
2022/04/04 08:17:24;;;;;;;5.05;0.90;;;5.70;99.90;;;;;;5052038;28;20049;-84
2022/04/04 08:19:50;;;;;;;0.52;0.45;;;6.50;99.90;;;;;;5035955;28;20058;-85
2022/04/04 08:22:17;;;;;;;0.10;0.00;;;5.80;99.90;;;;;;5035823;28;20491;-85
2022/04/04 08:24:42;;;;;;;0.10;0.10;;;6.10;99.90;;;;;;5052260;28;20480;-85
2022/04/04 08:27:10;;;;;;;0.00;0.00;;;5.70;99.90;;;;;;5052002;28;20049;-84
2022/04/04 08:29:36;;;;;;;0.10;0.10;;;6.10;99.90;;;;;;5055891;28;20053;-85
2022/04/04 08:32:02;;;;;;;0.10;0.10;;;5.70;99.90;;;;;;5040186;28;20412;-85
2022/04/04 08:34:29;;;;;;;0.00;0.00;;;5.60;99.90;;;;;;5039723;28;20083;-85
2022/04/04 08:36:57;;;;;;;1.75;0.10;;;5.70;99.90;;;;;;5039223;28;20076;-84
2022/04/04 08:39:23;;;;;;;0.25;0.25;;;7.10;99.90;;;;;;5039620;28;20049;-85
2022/04/04 08:41:49;;;;;;;0.20;0.20;;;5.60;99.90;;;;;;5039427;28;20041;-84
2022/04/04 08:44:15;;;;;;;0.10;0.10;;;5.70;99.90;;;;;;5055898;28;20056;-85
2022/04/04 08:46:42;;;;;;;0.13;0.13;;;5.60;99.90;;;;;;5055780;28;20045;-84
2022/04/04 08:49:11;;;;;;;0.10;0.10;;;5.60;99.90;;;;;;5055684;28;20451;-84
2022/04/04 08:51:37;;;;;;;0.10;0.00;;;5.90;99.90;;;;;;5055739;28;20392;-85
2022/04/04 08:54:03;;;;;;;1.45;0.82;;;5.60;99.90;;;;;;5056047;28;20225;-84
2022/04/04 08:56:29;;;;;;;0.68;0.25;;;5.60;99.90;;;;;;5038771;28;20041;-85
2022/04/04 08:58:55;;;;;;;0.75;0.70;;;6.20;99.90;;;;;;5056166;28;20052;-85
2022/04/04 09:01:24;;;;;;;0.75;0.03;;;6.00;99.90;;;;;;5055839;28;20052;-84
2022/04/04 09:03:52;;;;;;;0.00;0.00;;;5.90;99.90;;;;;;5055459;28;20053;-84
2022/04/04 09:06:18;;;;;;;0.45;0.22;;;5.70;99.90;;;;;;5055672;28;20041;-85
2022/04/04 09:08:47;;;;;;;3.65;0.10;;;5.70;99.90;;;;;;5055696;28;20049;-85
2022/04/04 09:11:14;;;;;;;0.22;0.10;;;6.40;99.90;;;;;;5055322;28;20096;-85
2022/04/04 09:13:41;;;;;;;0.28;0.28;;;5.80;99.90;;;;;;5038926;28;20091;-84
2022/04/04 09:16:09;;;;;;;0.30;0.08;;;5.80;99.90;;;;;;5038727;28;20045;-85
2022/04/04 09:18:39;;;;;;;0.22;0.22;;;5.90;99.90;;;;;;5038643;28;20123;-82
2022/04/04 09:21:06;;;;;;;0.00;0.00;;;5.90;99.90;;;;;;5055437;28;20045;-83
2022/04/04 09:23:42;;;;;;;0.00;0.00;;;5.90;99.90;;;;;;5055255;28;20055;-83
2022/04/04 09:26:38;;;;;;;0.70;0.13;;;6.00;99.90;;;;;;5038604;28;20143;-83
2022/04/04 09:29:16;;;;;;;0.00;0.00;;;6.00;99.90;;;;;;5038304;28;20488;-83
2022/04/04 09:32:15;;;;;;;0.65;0.28;;;6.00;99.90;;;;;;5038597;28;20045;-83
2022/04/04 09:35:04;;;;;;;0.20;0.20;;;6.00;99.90;;;;;;4998098;28;20108;-82
2022/04/04 09:37:33;;;;;;;0.03;0.03;;;6.00;99.90;;;;;;4981409;28;20409;-82
2022/04/04 09:40:09;;;;;;;1.45;0.25;;;6.20;99.90;;;;;;5001327;28;20128;-84
2022/04/04 09:42:36;;;;;;;0.10;0.10;;;5.90;99.90;;;;;;5015661;28;20052;-84
2022/04/04 09:45:10;;;;;;;0.00;0.00;;;6.10;99.90;;;;;;4999533;28;20079;-84
2022/04/04 09:47:56;;;;;;;0.30;0.10;;;5.90;99.90;;;;;;5015935;28;20095;-84
2022/04/04 09:50:45;;;;;;;0.00;0.00;;;5.90;99.90;;;;;;4995951;28;20507;-86
2022/04/04 09:53:22;;;;;;;0.00;0.00;;;5.90;99.90;;;;;;4998958;28;20045;-84
2022/04/04 09:55:51;;;;;;;0.00;0.00;;;5.90;99.90;;;;;;4998970;28;20065;-86
2022/04/04 09:58:44;;;;;;;4.30;0.52;;;6.20;99.90;;;;;;5014431;28;20064;-86
2022/04/04 10:01:10;;;;;;;0.03;0.00;;;5.80;99.90;;;;;;5011730;28;20136;-87
2022/04/04 10:03:37;;;;;;;0.00;0.00;;;5.90;99.90;;;;;;5015047;28;20136;-86
2022/04/04 10:06:12;;;;;;;0.10;0.10;;;5.80;99.90;;;;;;4998736;28;20061;-85
2022/04/04 10:08:43;;;;;;;;;;;5.80;99.90;;;;;;4999228;28;20052;-85
2022/04/04 10:11:09;;;;;;;0.00;0.00;;;5.90;99.90;;;;;;5048917;28;19920;-86
2022/04/04 10:13:38;;;;;;;0.00;0.00;;;5.80;99.90;;;;;;5037358;28;20064;-86
2022/04/04 10:16:08;;;;;;;0.00;0.00;;;5.90;99.90;;;;;;5037730;28;20053;-86
2022/04/04 10:18:35;;;;;;;0.00;0.00;;;5.90;99.90;;;;;;5054327;28;20048;-86
2022/04/04 10:21:03;;;;;;;0.05;0.03;;;5.90;99.90;;;;;;5037531;28;20079;-86
2022/04/04 10:23:33;;;;;;;0.00;0.00;;;6.00;99.90;;;;;;5053885;28;20143;-86
2022/04/04 10:26:00;;;;;;;0.00;0.00;;;6.10;99.90;;;;;;5053868;28;20400;-86
2022/04/04 10:28:35;;;;;;;0.00;0.00;;;6.00;99.90;;;;;;5037799;28;20041;-85
2022/04/04 10:31:27;;;;;;;1.75;0.10;;;5.60;99.90;;;;;;5037594;28;20049;-85
2022/04/04 10:33:58;;;;;;;0.17;0.08;;;5.90;99.90;;;;;;5054587;28;20125;-85
2022/04/04 10:36:27;;;;;;;0.00;0.00;;;7.40;99.90;;;;;;5054376;28;20055;-84
2022/04/04 10:38:55;;;;;;;0.00;0.00;;;6.30;99.90;;;;;;5037037;28;20194;-85
2022/04/04 10:41:32;;;;;;;0.00;0.00;;;6.30;99.90;;;;;;5037002;28;20069;-84
2022/04/04 10:44:05;;;;;;;0.08;0.08;;;6.00;99.90;;;;;;5037254;28;20056;-84
2022/04/04 10:46:31;;;;;;;0.13;0.10;;;6.00;99.90;;;;;;5038056;28;20114;-84
2022/04/04 10:49:04;;;;;;;0.35;0.35;;;6.00;99.90;;;;;;5037326;28;20460;-83
2022/04/04 10:51:34;;;;;;;0.00;0.00;;;6.00;99.90;;;;;;5037091;28;20091;-84
2022/04/04 10:54:13;;;;;;;0.13;0.13;;;6.20;99.90;;;;;;5053573;28;20049;-83
2022/04/04 10:56:46;;;;;;;0.30;0.10;;;6.30;99.90;;;;;;5036331;28;20054;-84
2022/04/04 10:59:14;;;;;;;0.00;0.00;;;6.20;99.90;;;;;;5037021;28;20041;-83
2022/04/04 11:01:48;;;;;;;0.00;0.00;;;6.30;99.90;;;;;;5036980;28;20041;-84
2022/04/04 11:04:24;;;;;;;0.00;0.00;;;6.20;99.90;;;;;;5037102;28;20048;-83
2022/04/04 11:09:51;;;;;;;0.00;0.00;;;6.30;99.90;;;;;;5053460;28;20131;-85
2022/04/04 11:12:18;;;;;;;0.00;0.00;;;6.30;99.90;;;;;;5036652;28;20049;-83
2022/04/04 11:14:57;;;;;;;1.00;0.15;;;6.40;99.90;;;;;;5036081;28;20057;-84
2022/04/04 11:17:30;;;;;;;2.17;0.20;;;6.40;99.90;;;;;;5036190;28;20041;-84
2022/04/04 11:20:04;;;;;;;0.00;0.00;;;6.30;99.90;;;;;;5037236;28;20091;-84
2022/04/04 11:22:33;;;;;;;0.08;0.08;;;6.40;99.90;;;;;;5053573;28;20049;-83
2022/04/04 11:25:06;;;;;;;0.10;0.10;;;6.30;99.90;;;;;;5053045;28;20127;-84
2022/04/04 11:27:34;;;;;;;0.00;0.00;;;6.40;99.90;;;;;;5036453;28;20052;-83
2022/04/04 11:30:05;;;;;;;0.10;0.00;;;6.30;99.90;;;;;;5037133;28;20072;-83
2022/04/04 11:32:34;;;;;;;0.10;0.00;;;6.30;99.90;;;;;;5054136;28;20048;-84
2022/04/04 11:35:06;;;;;;;0.00;0.00;;;6.40;99.90;;;;;;5054528;28;20045;-83
2022/04/04 11:37:39;;;;;;;0.10;0.10;;;6.60;99.90;;;;;;5054207;28;20139;-83
2022/04/04 11:40:08;;;;;;;2.05;0.98;;;6.40;99.90;;;;;;5054026;28;20408;-84
2022/04/04 11:42:51;;;;;;;0.00;0.00;;;6.40;99.90;;;;;;5070991;28;20053;-83
2022/04/04 11:45:20;;;;;;;0.00;0.00;;;6.50;99.90;;;;;;5071248;28;20048;-83
2022/04/04 11:48:06;;;;;;;0.00;0.00;;;6.40;99.90;;;;;;5054516;28;20047;-83
2022/04/04 11:50:37;;;;;;;0.00;0.00;;;6.50;99.90;;;;;;5053532;28;20477;-83
2022/04/04 11:53:08;;;;;;;0.20;0.10;;;6.40;99.90;;;;;;5054226;28;20090;-83
2022/04/04 11:55:36;;;;;;;0.00;0.00;;;6.50;99.90;;;;;;5054081;28;20052;-84
2022/04/04 11:58:10;;;;;;;0.00;0.00;;;6.50;99.90;;;;;;5053508;28;20476;-84
2022/04/04 12:00:37;;;;;;;0.00;0.00;;;6.60;99.90;;;;;;5052357;28;20083;-84
2022/04/04 12:03:15;;;;;;;0.00;0.00;;;6.60;99.90;;;;;;5072820;28;20047;-84
2022/04/04 12:05:43;;;;;;;0.00;0.00;;;6.60;99.90;;;;;;5041865;28;20075;-83
2022/04/04 12:08:10;;;;;;;3.13;0.47;;;6.70;99.90;;;;;;5040936;28;20055;-84
2022/04/04 12:10:40;;;;;;;0.00;0.00;;;6.70;99.90;;;;;;5042999;28;20377;-90
2022/04/04 12:13:21;;;;;;;0.00;0.00;;;6.70;99.90;;;;;;5041989;28;20052;-85
2022/04/04 12:15:56;;;;;;;0.13;0.10;;;6.70;99.90;;;;;;5058465;28;20045;-85
2022/04/04 12:18:26;;;;;;;0.00;0.00;;;6.70;99.90;;;;;;5059164;28;20052;-84
2022/04/04 12:20:54;;;;;;;0.00;0.00;;;6.80;99.90;;;;;;5059072;28;20052;-85
2022/04/04 12:26:17;;;;;;;0.03;0.00;;;6.80;99.90;;;;;;5058937;28;20472;-85
2022/04/04 12:28:49;;;;;;;0.00;0.00;;;6.80;99.90;;;;;;5058881;28;20044;-84
2022/04/04 12:31:23;;;;;;;0.00;0.00;;;6.90;99.90;;;;;;5042277;28;20618;-84
2022/04/04 12:34:10;;;;;;;0.05;0.00;;;6.90;99.90;;;;;;5044638;28;20499;-85
2022/04/04 12:36:44;;;;;;;0.00;0.00;;;7.00;99.90;;;;;;5058755;28;20048;-86
2022/04/04 12:39:18;;;;;;;0.30;0.10;;;6.90;99.90;;;;;;5061298;28;20051;-86
2022/04/04 12:41:56;;;;;;;0.00;0.00;;;7.00;99.90;;;;;;5062437;28;20051;-86
2022/04/04 12:44:27;;;;;;;0.13;0.10;;;7.00;99.90;;;;;;5062056;28;20504;-85
2022/04/04 12:47:15;;;;;;;0.00;0.00;;;6.90;99.90;;;;;;5078708;28;20051;-86
2022/04/04 12:49:41;;;;;;;0.00;0.00;;;7.00;99.90;;;;;;5062689;28;20096;-84
2022/04/04 12:52:10;;;;;;;0.00;0.00;;;6.90;99.90;;;;;;5058162;28;20129;-86
2022/04/04 12:54:39;;;;;;;0.30;0.00;;;7.00;99.90;;;;;;5051403;28;20088;-86
2022/04/04 12:57:08;;;;;;;0.00;0.00;;;6.90;99.90;;;;;;5041652;28;20037;-86
2022/04/04 12:59:56;;;;;;;0.00;0.00;;;7.00;99.90;;;;;;5060191;28;20047;-87
2022/04/04 13:02:33;;;;;;;0.43;0.35;;;7.30;99.90;;;;;;5062014;28;20084;-86
2022/04/04 13:05:15;;;;;;;0.00;0.00;;;8.00;99.90;;;;;;5059508;28;20044;-85
2022/04/04 13:08:00;;;;;;;0.00;0.00;;;7.10;99.90;;;;;;5077056;28;20045;-85
2022/04/04 13:10:30;;;;;;;0.00;0.00;;;7.10;99.90;;;;;;5060425;28;20166;-84
2022/04/04 13:13:10;;;;;;;0.00;0.00;;;7.10;99.90;;;;;;5059385;28;20048;-85
2022/04/04 13:15:37;;;;;;;0.00;0.00;;;7.10;99.90;;;;;;5055265;28;20131;-85
2022/04/04 13:18:03;;;;;;;0.00;0.00;;;7.40;99.90;;;;;;5073198;28;20048;-83